Αρχική σελίδα
METAR-TAF:

METAR-TAF

Αεροδρόμια :

Florianópolis, Σάντα Καταρίνα, Βραζιλία

γεωγραφικό πλάτος: 27-40S, γεωγραφικό μήκος: 048-33W, υψόμετρο: 5 μ

Παρών καιρός

Η αναφορά έγινε 1 ώρα και 7 λεπτά πριν, στις 03:00 UTC
Ήπιος άνεμος
Θερμοκρασία 15°C
Υγρασία 94%
Πίεση 1029 hPa
Ορατότητα 10 χλμ και άνω
Αρκετά νέφη σε ύψος 1700 πόδια

METAR: SBFL 180300Z 00000KT 9999 BKN017 15/14 Q1029

Χρόνος: 01:07 (04:07 UTC)

Πρόγνωση Καιρού

Η αναφορά έγινε 7 ώρες και 7 λεπτά πριν, στις 21:00 UTC
Η πρόγνωση ισχύει από τις 18 στις 00 UTC έως τις 18 στις 24 UTC
Άνεμος 5 kt από Δ/ΝΔ
Ορατότητα 10 χλμ και άνω
Αρκετά νέφη σε ύψος 1500 πόδια
Καθιστάμενος
από 18 στις 12 UTC έως τις 18 στις 14 UTC
Άνεμος 5 kt από Ν/NA
Διάσπαρτα νέφη σε ύψος 3000 πόδια

TAF: SBFL 172100Z 1800/1824 24005KT 9999 BKN015 TN14/1806Z TX21/1818Z BECMG 1812/1814 16005KT SCT030 RMK PDW

Μετεωρολογικές αναφορές και προγνώσεις για περισσότερα από 4000 αεροδρόμια (δελτία METAR και TAF).

Οι διαθέσιμοι σταθμοί απεικονίζονται στο χάρτη με κίτρινες και κόκκινες κουκκίδες.

Μετακινήστε το ποντίκι πάνω από τις κουκκίδες για να δείτε το όνομα του σταθμού.

Στη συνέχεια, κάντε κλικ για να δείτε τις μετεωρολογικές αναφορές και τις προγνώσεις καιρού.

Για να αλλάξετε το χάρτη: κάντε κλικ στα πράσινα κουμπιά με τον μαύρο σταυρό για να ζουμάρετε, στο πράσινο κουμπί με την παύλα για να αφαιρέσετε το ζουμ ή στα πράσινα βέλη για να αντιπαραβάλλετε χάρτες.


METAR-TAF: